Time;durP1;ratioP1;P1;durP2;ratioP2;P2;SDS_P1;SDS_P2;PMS_P1;PMS_P2;Temp;Humidity;BMP_temperature;BMP_pressure;BME280_temperature;BME280_humidity;BME280_pressure;Samples;Min_cycle;Max_cycle;Signal;HPM_P1;HPM_P2
2023/09/16 00:02:08;;;;;;;4.23;2.93;;;14.00;99.90;;;;;;4957189;28;20201;-77
2023/09/16 00:04:34;;;;;;;5.77;2.93;;;14.00;99.90;;;;;;4955688;28;20639;-77
2023/09/16 00:07:00;;;;;;;7.73;3.07;;;14.00;99.90;;;;;;4957186;29;20171;-77
2023/09/16 00:09:25;;;;;;;5.80;2.90;;;14.00;99.90;;;;;;4955744;28;20298;-77
2023/09/16 00:11:51;;;;;;;5.37;2.90;;;14.00;99.90;;;;;;4956863;28;20758;-77
2023/09/16 00:14:21;;;;;;;6.43;2.97;;;14.10;99.90;;;;;;4955451;28;20365;-76
2023/09/16 00:16:46;;;;;;;5.40;3.10;;;14.00;99.90;;;;;;4955485;29;20274;-77
2023/09/16 00:19:12;;;;;;;3.73;2.93;;;14.10;99.90;;;;;;4956820;29;20273;-77
2023/09/16 00:21:40;;;;;;;7.03;3.13;;;14.10;99.90;;;;;;4957016;28;20195;-77
2023/09/16 00:24:05;;;;;;;4.27;3.00;;;14.10;99.90;;;;;;4956784;29;20179;-77
2023/09/16 00:26:34;;;;;;;6.17;3.13;;;14.10;99.90;;;;;;4956674;29;20238;-77
2023/09/16 00:29:00;;;;;;;4.57;2.63;;;14.20;99.90;;;;;;4956655;29;20258;-77
2023/09/16 00:31:25;;;;;;;9.17;3.73;;;14.20;99.90;;;;;;4956379;28;20282;-78
2023/09/16 00:33:51;;;;;;;5.60;2.90;;;14.20;99.90;;;;;;4956526;29;20182;-77
2023/09/16 00:36:17;;;;;;;4.63;3.20;;;14.20;99.90;;;;;;4956659;29;20572;-77
2023/09/16 00:38:42;;;;;;;6.87;3.00;;;14.20;99.90;;;;;;4956539;29;20589;-77
2023/09/16 00:41:08;;;;;;;6.57;3.03;;;14.20;99.90;;;;;;4956789;28;20211;-77
2023/09/16 00:43:34;;;;;;;3.47;2.87;;;14.20;99.90;;;;;;4956736;28;20531;-77
2023/09/16 00:45:59;;;;;;;6.47;2.73;;;14.10;99.90;;;;;;4955824;28;20197;-77
2023/09/16 00:48:25;;;;;;;8.17;2.90;;;14.10;99.90;;;;;;4954925;28;20179;-77
2023/09/16 00:50:51;;;;;;;9.37;3.20;;;14.10;99.90;;;;;;4954974;28;20194;-78
2023/09/16 00:53:17;;;;;;;8.47;3.37;;;14.10;99.90;;;;;;4954842;29;20182;-77
2023/09/16 00:55:46;;;;;;;4.77;2.90;;;14.10;99.90;;;;;;4956137;29;20182;-77
2023/09/16 00:58:11;;;;;;;7.13;3.13;;;14.10;99.90;;;;;;4955135;29;20600;-77
2023/09/16 01:00:37;;;;;;;5.07;2.93;;;14.10;99.90;;;;;;4956478;28;20253;-78
2023/09/16 01:03:04;;;;;;;5.80;3.17;;;14.00;99.90;;;;;;4956390;29;20262;-77
2023/09/16 01:05:30;;;;;;;4.80;3.30;;;14.00;99.90;;;;;;4958002;29;20202;-77
2023/09/16 01:07:57;;;;;;;6.70;3.00;;;14.00;99.90;;;;;;4958103;29;20623;-77
2023/09/16 01:10:23;;;;;;;6.37;3.10;;;14.00;99.90;;;;;;4958836;29;20174;-77
2023/09/16 01:12:52;;;;;;;4.97;3.47;;;14.00;99.90;;;;;;4959843;28;20206;-77
2023/09/16 01:15:20;;;;;;;6.47;3.20;;;14.00;99.90;;;;;;4960318;29;20234;-77
2023/09/16 01:18:06;;;;;;;5.43;2.83;;;14.00;99.90;;;;;;4961574;29;20179;-77
2023/09/16 01:20:32;;;;;;;5.23;3.00;;;14.00;99.90;;;;;;4959474;29;20202;-77
2023/09/16 01:22:58;;;;;;;3.53;2.90;;;14.00;99.90;;;;;;4960541;28;20253;-77
2023/09/16 01:25:28;;;;;;;5.53;3.00;;;14.00;99.90;;;;;;4961057;29;20187;-77
2023/09/16 01:27:54;;;;;;;5.60;3.43;;;14.00;99.90;;;;;;4960095;29;20292;-77
2023/09/16 01:30:21;;;;;;;3.57;3.27;;;14.00;99.90;;;;;;4958578;28;20183;-77
2023/09/16 01:33:16;;;;;;;6.03;2.70;;;14.00;99.90;;;;;;4956307;28;20576;-77
2023/09/16 01:35:45;;;;;;;4.33;3.33;;;14.00;99.90;;;;;;4954158;29;20284;-77
2023/09/16 01:38:14;;;;;;;7.13;3.70;;;14.10;99.90;;;;;;4955220;29;20198;-77
2023/09/16 01:40:44;;;;;;;6.77;3.17;;;14.00;99.90;;;;;;4953821;28;20238;-78
2023/09/16 01:43:10;;;;;;;5.47;3.40;;;14.10;99.90;;;;;;4953518;28;20214;-77
2023/09/16 01:45:43;;;;;;;6.30;3.20;;;14.00;99.90;;;;;;4953880;29;20256;-77
2023/09/16 01:48:09;;;;;;;5.33;3.10;;;14.10;99.90;;;;;;4955118;29;20167;-77
2023/09/16 01:50:35;;;;;;;7.90;3.23;;;14.00;99.90;;;;;;4955071;28;20171;-79
2023/09/16 01:53:01;;;;;;;8.33;3.43;;;14.10;99.90;;;;;;4955461;29;20179;-77
2023/09/16 01:55:27;;;;;;;5.07;2.80;;;14.10;99.90;;;;;;4953665;28;20195;-77
2023/09/16 01:57:53;;;;;;;10.23;3.53;;;14.10;99.90;;;;;;4954935;29;20588;-77
2023/09/16 02:00:18;;;;;;;5.97;3.37;;;14.10;99.90;;;;;;4955245;29;20209;-77
2023/09/16 02:02:44;;;;;;;6.37;3.40;;;14.10;99.90;;;;;;4953818;28;20245;-77
2023/09/16 02:05:10;;;;;;;7.13;3.40;;;14.10;99.90;;;;;;4955033;29;20167;-76
2023/09/16 02:07:36;;;;;;;6.77;3.43;;;14.20;99.90;;;;;;4954792;29;20179;-77
2023/09/16 02:10:03;;;;;;;5.40;3.47;;;14.20;99.90;;;;;;4953457;29;20668;-77
2023/09/16 02:12:28;;;;;;;7.37;3.00;;;14.20;99.90;;;;;;4953391;28;20226;-77
2023/09/16 02:14:54;;;;;;;4.57;3.23;;;14.20;99.90;;;;;;4955015;29;20182;-77
2023/09/16 02:17:20;;;;;;;7.53;3.43;;;14.20;99.90;;;;;;4955181;29;20179;-77
2023/09/16 02:19:46;;;;;;;7.77;3.63;;;14.20;99.90;;;;;;4954738;29;20237;-77
2023/09/16 02:22:12;;;;;;;9.13;3.50;;;14.20;99.90;;;;;;4954863;28;20194;-77
2023/09/16 02:24:37;;;;;;;7.07;3.50;;;14.20;99.90;;;;;;4953536;28;20528;-77
2023/09/16 02:27:04;;;;;;;4.57;3.37;;;14.20;99.90;;;;;;4954681;29;20186;-77
2023/09/16 02:29:32;;;;;;;6.10;3.33;;;14.10;99.90;;;;;;4954538;29;20276;-77
2023/09/16 02:31:57;;;;;;;8.37;3.87;;;14.10;99.90;;;;;;4953149;28;20217;-77
2023/09/16 02:34:23;;;;;;;6.93;4.13;;;14.10;99.90;;;;;;4953168;29;20179;-77
2023/09/16 02:36:48;;;;;;;8.33;3.90;;;14.10;99.90;;;;;;4955006;29;20639;-77
2023/09/16 02:39:14;;;;;;;7.03;3.97;;;14.10;99.90;;;;;;4952849;28;20324;-77
2023/09/16 02:41:39;;;;;;;4.40;3.83;;;14.10;99.90;;;;;;4952944;28;20238;-77
2023/09/16 02:44:07;;;;;;;6.13;3.90;;;14.10;99.90;;;;;;4953079;28;20171;-77
2023/09/16 02:46:32;;;;;;;4.67;3.67;;;14.10;99.90;;;;;;4953239;28;20187;-77
2023/09/16 02:48:58;;;;;;;9.83;3.80;;;14.10;99.90;;;;;;4954958;29;20171;-77
2023/09/16 02:51:23;;;;;;;4.47;3.27;;;14.10;99.90;;;;;;4953249;28;20231;-77
2023/09/16 02:53:49;;;;;;;5.03;3.50;;;14.00;99.90;;;;;;4953455;28;20183;-77
2023/09/16 02:56:14;;;;;;;8.50;3.63;;;14.00;99.90;;;;;;4958105;29;20183;-77
2023/09/16 02:58:40;;;;;;;6.17;3.67;;;14.00;99.90;;;;;;4956958;28;20249;-77
2023/09/16 03:01:10;;;;;;;3.50;3.20;;;14.00;99.90;;;;;;4956722;28;20210;-77
2023/09/16 03:03:37;;;;;;;6.00;4.17;;;14.00;99.90;;;;;;4957097;29;20179;-77
2023/09/16 03:06:02;;;;;;;5.03;3.80;;;13.90;99.90;;;;;;4956678;29;20242;-77
2023/09/16 03:08:28;;;;;;;7.17;4.60;;;13.90;99.90;;;;;;4958082;29;20234;-77
2023/09/16 03:11:02;;;;;;;7.43;3.87;;;14.00;99.90;;;;;;4958047;28;20236;-77
2023/09/16 03:13:28;;;;;;;3.97;3.60;;;13.90;99.90;;;;;;4957943;29;20163;-77
2023/09/16 03:16:14;;;;;;;7.03;4.37;;;13.90;99.90;;;;;;4957977;29;20182;-77
2023/09/16 03:18:43;;;;;;;7.73;3.97;;;13.90;99.90;;;;;;4958378;29;20236;-77
2023/09/16 03:21:08;;;;;;;6.43;4.10;;;13.90;99.90;;;;;;4956657;28;20217;-77
2023/09/16 03:23:34;;;;;;;6.07;3.53;;;13.90;99.90;;;;;;4958044;29;20179;-77
2023/09/16 03:25:59;;;;;;;5.97;3.73;;;13.90;99.90;;;;;;4957890;29;20245;-77
2023/09/16 03:28:25;;;;;;;6.07;3.50;;;14.00;99.90;;;;;;4957951;29;20246;-78
2023/09/16 03:30:50;;;;;;;6.07;3.80;;;13.90;99.90;;;;;;4957764;28;20179;-78
2023/09/16 03:33:16;;;;;;;11.43;4.30;;;13.90;99.90;;;;;;4958094;29;20627;-77
2023/09/16 03:35:41;;;;;;;7.07;3.97;;;13.80;99.90;;;;;;4957808;29;20651;-78
2023/09/16 03:38:07;;;;;;;6.17;3.57;;;13.80;99.90;;;;;;4957420;29;20662;-77
2023/09/16 03:40:33;;;;;;;5.50;4.23;;;13.80;99.90;;;;;;4956174;28;20237;-77
2023/09/16 03:42:58;;;;;;;5.23;3.57;;;13.80;99.90;;;;;;4957433;28;20187;-77
2023/09/16 03:45:24;;;;;;;5.67;3.23;;;13.80;99.90;;;;;;4957632;29;20171;-77
2023/09/16 03:47:49;;;;;;;5.03;3.27;;;13.80;99.90;;;;;;4957513;29;20175;-77
2023/09/16 03:50:15;;;;;;;7.53;3.43;;;13.80;99.90;;;;;;4957484;29;20294;-77
2023/09/16 03:52:40;;;;;;;4.60;3.20;;;13.80;99.90;;;;;;4957221;28;20681;-77
2023/09/16 03:55:06;;;;;;;5.77;3.30;;;13.70;99.90;;;;;;4957484;29;20183;-77
2023/09/16 03:57:32;;;;;;;5.43;3.30;;;13.70;99.90;;;;;;4957401;29;20179;-77
2023/09/16 03:59:57;;;;;;;6.47;4.03;;;13.70;99.90;;;;;;4955969;28;20202;-77
2023/09/16 04:02:23;;;;;;;4.70;3.70;;;13.70;99.90;;;;;;4957316;28;20670;-77
2023/09/16 04:04:48;;;;;;;6.40;3.50;;;13.80;99.90;;;;;;4955530;28;20211;-77
2023/09/16 04:07:14;;;;;;;4.67;3.43;;;13.60;99.90;;;;;;4956881;29;20186;-79
2023/09/16 04:09:39;;;;;;;6.23;3.83;;;13.70;99.90;;;;;;4957109;29;20198;-77
2023/09/16 04:12:05;;;;;;;6.13;3.60;;;13.70;99.90;;;;;;4955611;28;20315;-77
2023/09/16 04:14:30;;;;;;;4.47;3.50;;;13.60;99.90;;;;;;4955613;28;20183;-77
2023/09/16 04:16:56;;;;;;;6.63;4.27;;;13.60;99.90;;;;;;4956740;29;20205;-77
2023/09/16 04:19:22;;;;;;;7.33;3.77;;;13.60;99.90;;;;;;4955426;29;20178;-77
2023/09/16 04:21:47;;;;;;;9.30;4.27;;;13.60;99.90;;;;;;4956851;28;20639;-77
2023/09/16 04:24:13;;;;;;;6.30;4.00;;;13.60;99.90;;;;;;4956875;29;20182;-77
2023/09/16 04:26:38;;;;;;;6.60;4.13;;;13.60;99.90;;;;;;4956652;29;20186;-77
2023/09/16 04:29:04;;;;;;;5.70;4.20;;;13.60;99.90;;;;;;4957237;29;20254;-77
2023/09/16 04:31:32;;;;;;;6.13;4.20;;;13.60;99.90;;;;;;4957274;28;20290;-79
2023/09/16 04:33:57;;;;;;;4.53;3.90;;;13.60;99.90;;;;;;4955449;28;20238;-77
2023/09/16 04:36:23;;;;;;;11.53;4.43;;;13.60;99.90;;;;;;4956858;29;20182;-77
2023/09/16 04:38:49;;;;;;;7.93;3.83;;;13.60;99.90;;;;;;4955340;29;20253;-77
2023/09/16 04:41:15;;;;;;;6.43;3.97;;;13.60;99.90;;;;;;4956134;28;20213;-78
2023/09/16 04:43:43;;;;;;;8.00;3.97;;;13.60;99.90;;;;;;4956397;29;20616;-77
2023/09/16 04:46:08;;;;;;;7.43;4.43;;;13.60;99.90;;;;;;4956358;29;20183;-76
2023/09/16 04:48:34;;;;;;;7.03;4.03;;;13.70;99.90;;;;;;4955001;29;20186;-78
2023/09/16 04:50:59;;;;;;;9.33;4.27;;;13.70;99.90;;;;;;4955285;28;20206;-77
2023/09/16 04:53:25;;;;;;;9.17;4.07;;;13.70;99.90;;;;;;4956431;29;20639;-77
2023/09/16 04:56:02;;;;;;;5.97;3.57;;;13.70;99.90;;;;;;4956235;29;20670;-78
2023/09/16 04:58:27;;;;;;;7.70;3.93;;;13.70;99.90;;;;;;4956347;29;20178;-77
2023/09/16 05:00:53;;;;;;;8.60;3.80;;;13.70;99.90;;;;;;4955975;28;20203;-78
2023/09/16 05:03:19;;;;;;;5.83;3.60;;;13.70;99.90;;;;;;4956271;29;20261;-77
2023/09/16 05:05:47;;;;;;;8.37;4.47;;;13.60;99.90;;;;;;4954284;28;20662;-79
2023/09/16 05:08:13;;;;;;;5.00;3.67;;;13.70;99.90;;;;;;4956035;29;20175;-77
2023/09/16 05:10:38;;;;;;;12.27;4.20;;;13.70;99.90;;;;;;4956610;28;20187;-78
2023/09/16 05:13:04;;;;;;;5.20;3.87;;;13.70;99.90;;;;;;4955041;29;20190;-77
2023/09/16 05:15:29;;;;;;;5.43;3.77;;;13.70;99.90;;;;;;4956352;29;20187;-77
2023/09/16 05:17:55;;;;;;;6.47;3.70;;;13.70;99.90;;;;;;4953893;28;20274;-77
2023/09/16 05:20:20;;;;;;;5.37;3.63;;;13.60;99.90;;;;;;4953670;28;20229;-77
2023/09/16 05:22:47;;;;;;;8.67;3.83;;;13.60;99.90;;;;;;4956198;28;20693;-77
2023/09/16 05:25:13;;;;;;;10.70;4.33;;;13.60;99.90;;;;;;4956167;29;20177;-77
2023/09/16 05:27:38;;;;;;;5.77;4.20;;;13.60;99.90;;;;;;4955857;29;20254;-77
2023/09/16 05:30:05;;;;;;;6.87;3.93;;;13.60;99.90;;;;;;4956211;29;20179;-77
2023/09/16 05:32:31;;;;;;;4.30;3.80;;;13.60;99.90;;;;;;4954386;28;20206;-77
2023/09/16 05:34:57;;;;;;;4.77;4.20;;;13.60;99.90;;;;;;4955664;29;20670;-77
2023/09/16 05:37:22;;;;;;;5.57;4.00;;;13.60;99.90;;;;;;4955492;29;20190;-77
2023/09/16 05:39:48;;;;;;;6.43;4.03;;;13.60;99.90;;;;;;4955887;29;20209;-78
2023/09/16 05:42:14;;;;;;;7.83;4.30;;;13.60;99.90;;;;;;4954189;28;20191;-79
2023/09/16 05:44:39;;;;;;;6.03;3.63;;;13.60;99.90;;;;;;4954775;28;20558;-77
2023/09/16 05:47:05;;;;;;;6.17;3.70;;;13.60;99.90;;;;;;4955558;29;20175;-77
2023/09/16 05:49:31;;;;;;;4.87;3.80;;;13.60;99.90;;;;;;4955556;29;20179;-77
2023/09/16 05:51:57;;;;;;;6.37;4.33;;;13.50;99.90;;;;;;4955476;28;20202;-77
2023/09/16 05:54:22;;;;;;;4.57;4.13;;;13.60;99.90;;;;;;4955447;29;20175;-79
2023/09/16 05:56:49;;;;;;;5.70;3.80;;;13.60;99.90;;;;;;4954412;29;20179;-78
2023/09/16 05:59:15;;;;;;;7.90;4.00;;;13.60;99.90;;;;;;4954044;29;20175;-77
2023/09/16 06:01:40;;;;;;;6.70;3.80;;;13.60;99.90;;;;;;4955703;28;20202;-77
2023/09/16 06:04:08;;;;;;;6.20;3.67;;;13.60;99.90;;;;;;4955668;29;20182;-77
2023/09/16 06:06:34;;;;;;;6.13;3.77;;;13.60;99.90;;;;;;4955445;28;20166;-77
2023/09/16 06:08:59;;;;;;;8.33;3.70;;;13.60;99.90;;;;;;4955476;29;20233;-77
2023/09/16 06:11:28;;;;;;;6.40;4.30;;;13.60;99.90;;;;;;4954041;28;20210;-78
2023/09/16 06:13:54;;;;;;;6.77;4.37;;;13.60;99.90;;;;;;4954436;29;20175;-78
2023/09/16 06:16:20;;;;;;;8.40;4.10;;;13.60;99.90;;;;;;4955994;29;20189;-78
2023/09/16 06:18:45;;;;;;;5.80;4.20;;;13.70;99.90;;;;;;4954199;28;20197;-78
2023/09/16 06:21:11;;;;;;;7.30;4.07;;;13.70;99.90;;;;;;4954037;28;20635;-78
2023/09/16 06:23:37;;;;;;;6.40;4.40;;;13.70;99.90;;;;;;4954305;28;20278;-77
2023/09/16 06:26:03;;;;;;;6.57;4.07;;;13.70;99.90;;;;;;4955286;29;20210;-78
2023/09/16 06:28:28;;;;;;;5.27;4.50;;;13.70;99.90;;;;;;4955588;28;20175;-78
2023/09/16 06:30:54;;;;;;;7.37;4.67;;;13.70;99.90;;;;;;4955575;28;20213;-78
2023/09/16 06:33:19;;;;;;;5.90;4.57;;;13.80;99.90;;;;;;4956902;29;20202;-78
2023/09/16 06:35:45;;;;;;;5.93;4.00;;;13.80;99.90;;;;;;4955840;28;20222;-78
2023/09/16 06:38:11;;;;;;;8.17;4.30;;;13.80;99.90;;;;;;4954919;28;20621;-78
2023/09/16 06:40:38;;;;;;;8.13;4.03;;;13.90;99.90;;;;;;4956701;28;20240;-79
2023/09/16 06:43:03;;;;;;;7.53;4.60;;;13.90;99.90;;;;;;4956489;29;20175;-79
2023/09/16 06:45:29;;;;;;;5.83;4.97;;;13.90;99.90;;;;;;4956949;29;20178;-79
2023/09/16 06:47:58;;;;;;;5.20;4.70;;;13.90;99.90;;;;;;4956655;29;20183;-80
2023/09/16 06:50:23;;;;;;;6.90;4.80;;;14.00;99.90;;;;;;4957012;29;20179;-79
2023/09/16 06:52:49;;;;;;;6.17;4.73;;;14.00;99.90;;;;;;4956330;28;20617;-78
2023/09/16 06:55:15;;;;;;;6.03;5.20;;;14.00;99.90;;;;;;4955661;29;20647;-77
2023/09/16 06:57:40;;;;;;;6.03;5.33;;;14.10;99.90;;;;;;4955858;29;20313;-77
2023/09/16 07:00:06;;;;;;;7.77;5.20;;;14.20;99.90;;;;;;4955000;29;20206;-77
2023/09/16 07:02:32;;;;;;;6.33;4.90;;;14.20;99.90;;;;;;4954819;28;20218;-77
2023/09/16 07:04:57;;;;;;;7.47;5.50;;;14.20;99.90;;;;;;4954714;29;20250;-77
2023/09/16 07:07:24;;;;;;;6.70;5.50;;;14.30;99.90;;;;;;4954558;29;20234;-78
2023/09/16 07:09:56;;;;;;;7.00;5.63;;;14.30;99.90;;;;;;4954378;29;20179;-77
2023/09/16 07:12:22;;;;;;;9.27;5.83;;;14.40;99.90;;;;;;4954673;28;20202;-76
2023/09/16 07:14:48;;;;;;;9.47;7.17;;;14.40;99.90;;;;;;4954243;29;20599;-77
2023/09/16 07:17:14;;;;;;;11.67;7.00;;;14.50;99.90;;;;;;4953129;29;20242;-77
2023/09/16 07:19:40;;;;;;;9.43;6.67;;;14.60;99.90;;;;;;4953128;28;20227;-77
2023/09/16 07:22:05;;;;;;;8.20;7.00;;;14.60;99.90;;;;;;4953232;28;20554;-77
2023/09/16 07:24:31;;;;;;;11.50;7.67;;;14.70;99.90;;;;;;4953201;29;20659;-77
2023/09/16 07:26:56;;;;;;;10.40;7.93;;;14.80;99.90;;;;;;4954656;29;20585;-79
2023/09/16 07:29:22;;;;;;;9.73;7.57;;;14.90;99.90;;;;;;4954588;29;20172;-77
2023/09/16 07:31:48;;;;;;;10.90;7.40;;;15.00;99.90;;;;;;4952895;28;20199;-77
2023/09/16 07:34:15;;;;;;;8.63;7.70;;;15.10;99.90;;;;;;4954024;29;20234;-76
2023/09/16 07:36:41;;;;;;;9.57;7.33;;;15.20;99.90;;;;;;4952603;28;20186;-76
2023/09/16 07:39:07;;;;;;;10.37;8.03;;;15.30;99.90;;;;;;4953806;29;20191;-76
2023/09/16 07:41:33;;;;;;;8.63;6.73;;;15.30;99.90;;;;;;4955973;28;20225;-76
2023/09/16 07:43:59;;;;;;;9.53;7.87;;;15.30;99.90;;;;;;4956104;29;20673;-76
2023/09/16 07:46:24;;;;;;;9.57;7.83;;;15.50;99.90;;;;;;4957303;29;20669;-77
2023/09/16 07:48:50;;;;;;;11.67;7.47;;;15.60;99.90;;;;;;4957317;29;20171;-76
2023/09/16 07:51:16;;;;;;;14.43;7.70;;;15.70;99.90;;;;;;4955757;28;20211;-76
2023/09/16 07:53:41;;;;;;;8.50;6.47;;;15.70;99.90;;;;;;4955848;29;20183;-75
2023/09/16 07:56:07;;;;;;;13.33;8.07;;;15.80;99.90;;;;;;4957099;29;20547;-76
2023/09/16 07:58:32;;;;;;;9.37;6.83;;;15.90;99.90;;;;;;4955668;28;20230;-76
2023/09/16 08:00:58;;;;;;;11.93;7.37;;;16.00;99.90;;;;;;4956803;28;20214;-76
2023/09/16 08:03:24;;;;;;;12.07;8.20;;;16.10;99.90;;;;;;4956987;29;20175;-76
2023/09/16 08:05:50;;;;;;;12.60;8.10;;;16.20;99.90;;;;;;4956832;29;20171;-76
2023/09/16 08:08:16;;;;;;;12.30;7.97;;;16.30;99.90;;;;;;4956072;29;20185;-76
2023/09/16 08:10:51;;;;;;;10.50;8.10;;;16.20;99.90;;;;;;4955332;28;20179;-76
2023/09/16 08:13:20;;;;;;;12.13;7.67;;;16.40;99.90;;;;;;4957062;29;20159;-76
2023/09/16 08:15:46;;;;;;;11.73;7.80;;;16.60;99.90;;;;;;4956827;29;20171;-75
2023/09/16 08:18:11;;;;;;;16.47;8.97;;;16.60;99.90;;;;;;4956779;29;20674;-75
2023/09/16 08:20:37;;;;;;;11.33;7.87;;;16.70;99.90;;;;;;4956607;28;20257;-77
2023/09/16 08:23:02;;;;;;;10.20;7.10;;;16.80;99.90;;;;;;4955232;28;20270;-76
2023/09/16 08:25:28;;;;;;;8.23;7.13;;;17.00;99.90;;;;;;4956616;29;20180;-77
2023/09/16 08:27:54;;;;;;;9.87;5.80;;;16.90;99.90;;;;;;4956873;29;20247;-76
2023/09/16 08:30:21;;;;;;;8.23;6.10;;;17.10;99.90;;;;;;4956905;29;20671;-77
2023/09/16 08:32:47;;;;;;;7.77;5.30;;;17.20;99.90;;;;;;4955298;28;20203;-77
2023/09/16 08:35:12;;;;;;;5.20;4.70;;;17.20;99.90;;;;;;4957109;29;20607;-77
2023/09/16 08:37:38;;;;;;;5.87;4.53;;;17.20;99.90;;;;;;4955182;28;20186;-77
2023/09/16 08:40:04;;;;;;;5.80;4.27;;;17.40;99.90;;;;;;4956949;29;20195;-77
2023/09/16 08:42:29;;;;;;;4.73;4.20;;;17.40;99.90;;;;;;4956569;28;20210;-77
2023/09/16 08:44:58;;;;;;;7.30;4.80;;;17.50;99.90;;;;;;4955062;29;20175;-77
2023/09/16 08:47:40;;;;;;;5.77;4.23;;;17.40;99.90;;;;;;4956773;29;20231;-76
2023/09/16 08:50:08;;;;;;;4.73;3.90;;;17.70;99.90;;;;;;4956690;29;20255;-78
2023/09/16 08:52:48;;;;;;;6.27;4.00;;;17.80;99.90;;;;;;4955404;28;20683;-79
2023/09/16 08:55:14;;;;;;;7.27;3.93;;;17.90;99.90;;;;;;4955800;29;20203;-78
2023/09/16 08:57:50;;;;;;;8.63;4.23;;;18.00;99.90;;;;;;4955333;28;20186;-78
2023/09/16 09:00:16;;;;;;;5.27;4.17;;;18.10;99.90;;;;;;4955352;28;20253;-78
2023/09/16 09:02:43;;;;;;;5.30;3.53;;;18.30;99.90;;;;;;4957019;28;20194;-78
2023/09/16 09:05:11;;;;;;;4.93;3.80;;;18.20;99.90;;;;;;4956908;29;20175;-77
2023/09/16 09:07:39;;;;;;;5.07;4.33;;;18.30;99.90;;;;;;4956536;29;20270;-77
2023/09/16 09:10:06;;;;;;;4.40;3.57;;;18.50;99.90;;;;;;4955079;28;20670;-77
2023/09/16 09:12:34;;;;;;;8.13;3.60;;;18.50;99.90;;;;;;4956283;28;20594;-77
2023/09/16 09:15:04;;;;;;;6.47;4.27;;;18.50;99.90;;;;;;4955697;28;20189;-78
2023/09/16 09:17:39;;;;;;;4.70;4.13;;;18.70;99.90;;;;;;4974930;28;20173;-79
2023/09/16 09:20:11;;;;;;;6.03;4.07;;;18.80;99.90;;;;;;4976718;28;20762;-78
2023/09/16 09:22:39;;;;;;;6.23;3.93;;;18.80;99.90;;;;;;4976820;28;20198;-78
2023/09/16 09:25:06;;;;;;;6.33;3.80;;;18.90;99.90;;;;;;4977253;28;20538;-78
2023/09/16 09:27:32;;;;;;;4.37;3.97;;;19.00;99.90;;;;;;4975388;28;20661;-79
2023/09/16 09:29:57;;;;;;;4.37;3.97;;;19.10;99.90;;;;;;4977087;28;20188;-80
2023/09/16 09:32:29;;;;;;;15.30;4.23;;;19.20;99.90;;;;;;4976358;28;20253;-80
2023/09/16 09:34:54;;;;;;;5.33;4.13;;;19.40;99.90;;;;;;4977978;28;20185;-81
2023/09/16 09:37:20;;;;;;;5.70;4.57;;;19.40;99.90;;;;;;4976622;28;20178;-81
2023/09/16 09:40:03;;;;;;;12.07;4.50;;;19.50;99.90;;;;;;4976275;28;20202;-81
2023/09/16 09:42:29;;;;;;;6.17;4.20;;;19.60;99.90;;;;;;4977155;28;20190;-80
2023/09/16 09:45:01;;;;;;;5.80;3.93;;;19.70;99.90;;;;;;4977825;28;20222;-80
2023/09/16 09:47:27;;;;;;;4.87;3.37;;;19.90;99.90;;;;;;4976284;28;20178;-80
2023/09/16 09:49:52;;;;;;;4.50;4.00;;;20.00;99.90;;;;;;4978276;28;20182;-80
2023/09/16 09:52:18;;;;;;;6.77;3.80;;;20.00;99.90;;;;;;4977302;28;20193;-81
2023/09/16 09:54:45;;;;;;;3.90;3.50;;;20.20;99.90;;;;;;4977641;28;20174;-81
2023/09/16 09:57:11;;;;;;;3.70;3.40;;;20.30;99.90;;;;;;4976864;28;20182;-81
2023/09/16 09:59:36;;;;;;;6.73;3.53;;;20.50;99.90;;;;;;4976543;28;20621;-81
2023/09/16 10:02:05;;;;;;;5.87;4.17;;;20.40;99.90;;;;;;4976938;28;20190;-81
2023/09/16 10:04:30;;;;;;;4.33;3.60;;;20.50;99.90;;;;;;4977106;28;20182;-78
2023/09/16 10:06:57;;;;;;;4.87;3.40;;;20.70;99.90;;;;;;4975321;28;20698;-78
2023/09/16 10:09:23;;;;;;;5.33;3.90;;;20.70;99.90;;;;;;4977049;28;20657;-78
2023/09/16 10:11:51;;;;;;;4.20;3.50;;;20.80;99.90;;;;;;4975198;28;20198;-78
2023/09/16 10:14:19;;;;;;;5.83;3.97;;;20.80;99.90;;;;;;4976512;28;20185;-78
2023/09/16 10:16:46;;;;;;;4.17;3.67;;;20.80;99.90;;;;;;4976282;28;20260;-78
2023/09/16 10:19:12;;;;;;;4.27;3.53;;;20.80;99.90;;;;;;4976320;28;20610;-78
2023/09/16 10:21:38;;;;;;;4.60;4.10;;;20.80;99.90;;;;;;4975688;28;20198;-78
2023/09/16 10:24:04;;;;;;;6.37;3.40;;;20.80;99.90;;;;;;4974883;28;20668;-78
2023/09/16 10:26:30;;;;;;;4.37;3.57;;;21.00;99.90;;;;;;4977122;28;20178;-78
2023/09/16 10:28:58;;;;;;;6.77;3.47;;;21.00;99.90;;;;;;4977353;28;20170;-78
2023/09/16 10:31:25;;;;;;;4.80;3.67;;;21.20;99.90;;;;;;4979006;28;20194;-78
2023/09/16 10:33:53;;;;;;;3.73;3.40;;;21.10;99.90;;;;;;4976407;28;20182;-78
2023/09/16 10:36:22;;;;;;;4.50;3.73;;;21.10;99.90;;;;;;4974741;28;20174;-80
2023/09/16 10:38:48;;;;;;;5.67;3.50;;;21.20;99.90;;;;;;4993201;28;20201;-79
2023/09/16 10:41:16;;;;;;;5.10;3.40;;;21.20;99.90;;;;;;4996081;28;20229;-79
2023/09/16 10:43:46;;;;;;;4.23;3.83;;;21.30;99.90;;;;;;4995957;28;20185;-79
2023/09/16 10:46:13;;;;;;;4.37;3.80;;;21.30;99.90;;;;;;4996643;28;20174;-79
2023/09/16 10:48:38;;;;;;;4.67;3.43;;;21.40;99.90;;;;;;4995281;28;20169;-80
2023/09/16 10:51:15;;;;;;;4.00;3.60;;;21.40;99.90;;;;;;4994107;28;20202;-79
2023/09/16 10:53:41;;;;;;;4.20;3.80;;;21.40;99.90;;;;;;4995883;28;20164;-79
2023/09/16 10:56:16;;;;;;;3.77;3.47;;;21.30;99.90;;;;;;4994714;28;20192;-79
2023/09/16 10:58:55;;;;;;;7.67;3.60;;;21.40;99.90;;;;;;4995223;28;20623;-79
2023/09/16 11:01:50;;;;;;;4.10;3.70;;;21.40;99.90;;;;;;4996093;28;20217;-79
2023/09/16 11:04:19;;;;;;;5.40;3.80;;;21.50;99.90;;;;;;4996469;28;20181;-79
2023/09/16 11:06:50;;;;;;;6.53;4.07;;;21.60;99.90;;;;;;4997313;28;20162;-79
2023/09/16 11:09:20;;;;;;;7.33;3.77;;;21.70;99.90;;;;;;4993851;28;20177;-79
2023/09/16 11:11:48;;;;;;;4.43;4.03;;;21.90;99.90;;;;;;4995287;28;20553;-79
2023/09/16 11:14:14;;;;;;;4.67;3.43;;;22.00;99.90;;;;;;4995626;28;20213;-79
2023/09/16 11:16:50;;;;;;;5.17;3.77;;;22.00;99.90;;;;;;4996817;28;20178;-79
2023/09/16 11:19:20;;;;;;;3.77;3.40;;;22.00;99.90;;;;;;4999128;28;20178;-79
2023/09/16 11:21:46;;;;;;;4.93;3.83;;;22.00;99.90;;;;;;4997867;28;20351;-80
2023/09/16 11:24:12;;;;;;;4.33;3.90;;;22.20;99.90;;;;;;4999195;28;20538;-80
2023/09/16 11:26:39;;;;;;;4.43;3.90;;;22.10;99.90;;;;;;4999119;28;20170;-79
2023/09/16 11:29:17;;;;;;;4.77;4.27;;;22.00;99.90;;;;;;4996911;28;20272;-78
2023/09/16 11:31:43;;;;;;;4.27;3.80;;;22.20;99.90;;;;;;4997105;28;20194;-78
2023/09/16 11:34:11;;;;;;;4.20;3.77;;;22.20;99.90;;;;;;4996355;28;20229;-76
2023/09/16 11:36:43;;;;;;;6.60;3.47;;;22.40;99.90;;;;;;4996279;28;20196;-77
2023/09/16 11:39:10;;;;;;;4.07;3.67;;;22.30;99.90;;;;;;4996575;28;20272;-78
2023/09/16 11:41:36;;;;;;;6.80;3.93;;;22.40;99.90;;;;;;4996175;28;20561;-76
2023/09/16 11:44:02;;;;;;;5.33;4.13;;;22.40;99.90;;;;;;4995885;28;20265;-77
2023/09/16 11:46:30;;;;;;;6.73;4.07;;;22.40;99.90;;;;;;4996252;28;20236;-79
2023/09/16 11:49:03;;;;;;;5.17;3.83;;;22.50;99.90;;;;;;4992608;28;20174;-78
2023/09/16 11:51:28;;;;;;;4.43;4.03;;;22.60;99.90;;;;;;4966090;28;20240;-78
2023/09/16 11:53:55;;;;;;;10.33;5.17;;;22.70;99.90;;;;;;4972528;28;20235;-77
2023/09/16 11:56:29;;;;;;;5.30;4.30;;;22.80;99.90;;;;;;4969201;28;20378;-77
2023/09/16 11:58:55;;;;;;;5.67;4.20;;;22.90;99.90;;;;;;4970574;28;20583;-77
2023/09/16 12:01:36;;;;;;;4.90;3.87;;;22.90;1.00;;;;;;4969770;28;20640;-76
2023/09/16 12:04:06;;;;;;;5.97;4.30;;;22.90;99.90;;;;;;4968998;28;20170;-77
2023/09/16 12:06:34;;;;;;;6.60;3.67;;;22.90;99.90;;;;;;4955892;28;20175;-76
2023/09/16 12:09:02;;;;;;;7.83;4.40;;;22.90;99.90;;;;;;4956825;29;20262;-76
2023/09/16 12:11:29;;;;;;;4.00;3.70;;;23.00;99.90;;;;;;4956607;29;20197;-76
2023/09/16 12:13:54;;;;;;;5.47;4.40;;;23.10;99.90;;;;;;4961720;28;20188;-76
2023/09/16 12:16:20;;;;;;;5.67;5.03;;;23.20;99.90;;;;;;4976507;28;20174;-76
2023/09/16 12:18:47;;;;;;;5.13;4.43;;;23.20;99.90;;;;;;4990637;28;20182;-75
2023/09/16 12:21:13;;;;;;;5.83;3.87;;;23.20;99.90;;;;;;4990392;28;20683;-76
2023/09/16 12:23:41;;;;;;;8.50;4.50;;;23.30;99.90;;;;;;4975687;28;20163;-76
2023/09/16 12:26:08;;;;;;;4.53;4.13;;;23.30;99.90;;;;;;4990094;28;20193;-76
2023/09/16 12:28:34;;;;;;;4.63;3.90;;;23.40;5.30;;;;;;4976698;28;20690;-78
2023/09/16 12:30:59;;;;;;;4.77;4.07;;;23.50;82.20;;;;;;4975245;28;20276;-78
2023/09/16 12:33:48;;;;;;;5.77;4.17;;;23.40;1.00;;;;;;4991869;28;20178;-77
2023/09/16 12:36:19;;;;;;;4.30;3.90;;;23.50;1.00;;;;;;4992883;28;20261;-77
2023/09/16 12:38:46;;;;;;;5.93;4.23;;;23.50;48.90;;;;;;4976982;28;20189;-77
2023/09/16 12:41:12;;;;;;;5.37;4.33;;;23.50;99.90;;;;;;4976489;28;20284;-77
2023/09/16 12:43:39;;;;;;;6.07;4.30;;;23.70;99.90;;;;;;4990616;28;20542;-77
2023/09/16 12:46:06;;;;;;;5.27;3.93;;;23.80;1.00;;;;;;4975416;28;20265;-77